Terminal Aerodrome Forecast
Issued by NWS

Home | Current Version | Previous Version | Text Only | Print | Product List | Glossary On
Versions: 1 2 3 4 5 6 7 8 9 10 11 12 13 14 15 16 17 18 19 20 21 22 23 24 25 26 27 28 29 30
000
FTUS41 KGYX 231720
TAFLEB
TAF
KLEB 231720Z 2318/2418 22006KT P6SM SKC
     FM240000 00000KT P6SM SKC
     FM241500 35004KT P6SM BKN090 BKN250=

USA.gov is the U.S. government's official web portal to all federal, state and local government web resources and services.